Time;durP1;ratioP1;P1;durP2;ratioP2;P2;SDS_P1;SDS_P2;PMS_P1;PMS_P2;Temp;Humidity;BMP_temperature;BMP_pressure;BME280_temperature;BME280_humidity;BME280_pressure;Samples;Min_cycle;Max_cycle;Signal;HPM_P1;HPM_P2
2022/05/22 00:02:02;;;;;;;4.43;1.15;;;9.70;99.90;;;;;;5017685;28;20019;-76
2022/05/22 00:04:28;;;;;;;6.07;1.60;;;9.60;99.90;;;;;;5017371;28;20068;-75
2022/05/22 00:06:53;;;;;;;9.10;1.20;;;9.60;99.90;;;;;;5017228;28;20030;-75
2022/05/22 00:09:21;;;;;;;5.78;1.02;;;9.50;99.90;;;;;;5016172;28;20022;-75
2022/05/22 00:11:47;;;;;;;4.90;1.67;;;9.50;99.90;;;;;;5017567;28;20040;-75
2022/05/22 00:14:13;;;;;;;3.38;0.98;;;9.40;99.90;;;;;;5017132;28;20025;-75
2022/05/22 00:16:46;;;;;;;5.35;1.25;;;9.40;99.90;;;;;;5017863;28;20029;-76
2022/05/22 00:19:19;;;;;;;4.32;1.23;;;9.30;99.90;;;;;;5017657;28;20026;-76
2022/05/22 00:21:45;;;;;;;4.55;1.33;;;9.30;99.90;;;;;;5017367;28;20041;-76
2022/05/22 00:24:12;;;;;;;4.13;1.85;;;9.30;99.90;;;;;;5031716;28;20018;-76
2022/05/22 00:26:39;;;;;;;4.03;1.67;;;9.20;99.90;;;;;;5017112;28;20021;-75
2022/05/22 00:29:05;;;;;;;5.50;1.40;;;9.20;99.90;;;;;;5016724;28;20029;-75
2022/05/22 00:31:31;;;;;;;6.63;2.03;;;9.20;99.90;;;;;;5016677;28;20045;-75
2022/05/22 00:33:56;;;;;;;4.50;1.27;;;9.20;99.90;;;;;;5017375;28;20083;-76
2022/05/22 00:36:23;;;;;;;6.35;1.55;;;9.20;99.90;;;;;;5015283;28;20480;-75
2022/05/22 00:38:48;;;;;;;9.25;1.58;;;9.20;99.90;;;;;;5016625;28;20389;-75
2022/05/22 00:41:15;;;;;;;5.20;1.70;;;9.20;99.90;;;;;;5016541;28;20022;-75
2022/05/22 00:43:43;;;;;;;4.90;1.23;;;9.10;99.90;;;;;;5016631;28;20026;-75
2022/05/22 00:46:14;;;;;;;8.10;1.55;;;9.10;99.90;;;;;;5031798;28;20105;-75
2022/05/22 00:48:43;;;;;;;6.65;2.40;;;9.10;99.90;;;;;;5017220;28;20018;-75
2022/05/22 00:51:14;;;;;;;;;;;9.10;99.90;;;;;;5015959;28;20018;-75
2022/05/22 00:53:49;;;;;;;6.30;1.25;;;9.00;99.90;;;;;;5015449;28;19905;-74
2022/05/22 00:56:18;;;;;;;6.95;1.40;;;9.00;99.90;;;;;;5016909;28;20473;-75
2022/05/22 00:58:45;;;;;;;4.50;1.45;;;9.00;99.90;;;;;;5017015;28;20492;-75
2022/05/22 01:01:11;;;;;;;2.58;0.60;;;8.90;99.90;;;;;;5016431;28;20076;-75
2022/05/22 01:03:37;;;;;;;3.85;0.63;;;8.90;99.90;;;;;;5016416;28;20058;-75
2022/05/22 01:06:24;;;;;;;1.63;0.50;;;8.90;99.90;;;;;;5016321;28;20029;-76
2022/05/22 01:08:50;;;;;;;3.35;0.90;;;8.90;99.90;;;;;;5015519;28;20444;-76
2022/05/22 01:11:30;;;;;;;1.77;0.40;;;8.90;99.90;;;;;;5016289;28;20084;-76
2022/05/22 01:14:02;;;;;;;5.85;0.55;;;8.80;99.90;;;;;;5016588;28;20033;-75
2022/05/22 01:16:28;;;;;;;3.63;0.63;;;8.80;99.90;;;;;;5017506;28;20041;-76
2022/05/22 01:18:55;;;;;;;2.40;0.63;;;8.80;99.90;;;;;;5017116;28;20022;-77
2022/05/22 01:21:27;;;;;;;2.35;0.30;;;8.80;99.90;;;;;;5017366;28;20358;-78
2022/05/22 01:23:53;;;;;;;2.40;0.17;;;8.70;99.90;;;;;;5017267;28;20107;-77
2022/05/22 01:26:19;;;;;;;7.88;0.93;;;8.70;99.90;;;;;;5017252;28;20028;-77
2022/05/22 01:28:45;;;;;;;3.22;0.10;;;8.60;99.90;;;;;;5016260;28;20026;-77
2022/05/22 01:31:12;;;;;;;0.68;0.10;;;8.60;99.90;;;;;;5015626;28;20098;-77
2022/05/22 01:33:38;;;;;;;1.80;0.28;;;8.60;99.90;;;;;;5017013;28;20029;-75
2022/05/22 01:36:05;;;;;;;1.00;0.10;;;8.60;99.90;;;;;;5015826;28;20553;-76
2022/05/22 01:38:32;;;;;;;5.03;0.40;;;8.60;99.90;;;;;;5015360;28;20049;-75
2022/05/22 01:40:58;;;;;;;1.45;0.20;;;8.60;99.90;;;;;;5015408;28;20034;-76
2022/05/22 01:43:24;;;;;;;1.75;0.20;;;8.50;99.90;;;;;;5016942;28;20435;-76
2022/05/22 01:45:50;;;;;;;1.50;0.20;;;8.50;99.90;;;;;;5016509;28;20057;-76
2022/05/22 01:48:16;;;;;;;2.20;0.50;;;8.50;99.90;;;;;;5015278;28;20022;-76
2022/05/22 01:50:44;;;;;;;1.42;0.10;;;8.50;99.90;;;;;;5015359;28;20029;-76
2022/05/22 01:53:11;;;;;;;1.43;0.40;;;8.40;99.90;;;;;;5016347;28;20381;-76
2022/05/22 01:55:37;;;;;;;1.52;0.22;;;8.40;99.90;;;;;;5017039;28;20026;-75
2022/05/22 01:58:06;;;;;;;0.98;0.25;;;8.40;99.90;;;;;;5016364;28;20021;-76
2022/05/22 02:00:32;;;;;;;2.92;0.93;;;8.80;99.90;;;;;;5015423;28;20113;-76
2022/05/22 02:02:58;;;;;;;2.95;0.47;;;8.40;99.90;;;;;;5031587;28;20053;-76
2022/05/22 02:05:24;;;;;;;4.47;1.02;;;8.40;99.90;;;;;;5016679;28;20540;-76
2022/05/22 02:10:34;;;;;;;5.65;0.98;;;8.30;99.90;;;;;;5017182;28;20033;-76
2022/05/22 02:13:00;;;;;;;3.75;1.15;;;8.30;99.90;;;;;;5031458;28;20030;-76
2022/05/22 02:15:26;;;;;;;1.95;0.90;;;8.30;99.90;;;;;;5017037;28;20037;-76
2022/05/22 02:17:52;;;;;;;3.53;0.57;;;8.30;99.90;;;;;;5014057;28;20147;-76
2022/05/22 02:20:18;;;;;;;3.90;1.10;;;8.30;99.90;;;;;;5015789;28;20104;-76
2022/05/22 02:22:49;;;;;;;4.22;0.88;;;8.30;99.90;;;;;;5014131;28;20060;-77
2022/05/22 02:25:22;;;;;;;2.63;0.35;;;8.30;99.90;;;;;;5015814;28;20026;-75
2022/05/22 02:27:48;;;;;;;6.53;0.93;;;8.30;99.90;;;;;;5030930;28;20022;-76
2022/05/22 02:30:17;;;;;;;6.82;0.98;;;8.30;99.90;;;;;;5015847;28;20056;-75
2022/05/22 02:32:43;;;;;;;4.90;0.65;;;8.20;99.90;;;;;;5014944;28;20385;-76
2022/05/22 02:35:11;;;;;;;1.80;0.40;;;8.20;99.90;;;;;;5014626;28;20022;-77
2022/05/22 02:37:48;;;;;;;2.58;0.30;;;8.20;99.90;;;;;;5014974;28;20022;-77
2022/05/22 02:40:16;;;;;;;4.22;0.80;;;8.20;99.90;;;;;;5013864;28;20030;-74
2022/05/22 02:42:44;;;;;;;1.75;0.52;;;8.20;99.90;;;;;;5013132;28;20057;-75
2022/05/22 02:45:11;;;;;;;1.73;0.20;;;8.30;99.90;;;;;;5014657;28;20432;-74
2022/05/22 02:47:39;;;;;;;3.88;0.30;;;8.30;99.90;;;;;;5030450;28;20467;-74
2022/05/22 02:50:07;;;;;;;4.43;0.30;;;8.30;99.90;;;;;;5014837;28;20076;-74
2022/05/22 02:52:33;;;;;;;3.13;0.20;;;8.20;99.90;;;;;;5029240;28;20489;-74
2022/05/22 02:54:59;;;;;;;1.75;0.50;;;8.20;99.90;;;;;;5029663;28;20017;-74
2022/05/22 02:57:25;;;;;;;2.10;0.30;;;8.20;99.90;;;;;;5014075;28;20119;-74
2022/05/22 02:59:52;;;;;;;4.60;0.38;;;8.10;99.90;;;;;;5014627;28;20018;-74
2022/05/22 03:02:18;;;;;;;2.70;0.30;;;8.10;99.90;;;;;;5013882;28;20029;-74
2022/05/22 03:04:43;;;;;;;2.97;0.63;;;8.10;99.90;;;;;;5014365;28;20465;-74
2022/05/22 03:07:14;;;;;;;5.50;0.65;;;8.10;99.90;;;;;;5014012;28;20033;-75
2022/05/22 03:09:41;;;;;;;2.97;0.30;;;8.10;99.90;;;;;;5013563;28;20532;-75
2022/05/22 03:12:09;;;;;;;3.03;0.30;;;8.10;99.90;;;;;;5014228;28;20021;-76
2022/05/22 03:14:35;;;;;;;1.27;0.32;;;8.10;99.90;;;;;;5014210;28;20029;-74
2022/05/22 03:17:01;;;;;;;1.88;0.20;;;8.20;99.90;;;;;;5014668;28;20032;-74
2022/05/22 03:19:26;;;;;;;2.50;0.38;;;8.10;99.90;;;;;;5014024;28;20096;-74
2022/05/22 03:21:52;;;;;;;3.88;1.02;;;8.10;99.90;;;;;;5029757;28;20029;-75
2022/05/22 03:24:18;;;;;;;1.30;0.57;;;8.00;99.90;;;;;;5013902;28;20018;-74
2022/05/22 03:26:43;;;;;;;1.80;0.30;;;8.50;99.90;;;;;;5013971;28;20018;-74
2022/05/22 03:29:09;;;;;;;2.83;0.70;;;8.00;99.90;;;;;;5014301;28;20021;-74
2022/05/22 03:31:35;;;;;;;2.00;0.55;;;7.90;99.90;;;;;;5012745;28;20038;-74
2022/05/22 03:34:00;;;;;;;2.40;0.25;;;7.90;99.90;;;;;;5012356;28;20461;-74
2022/05/22 03:36:26;;;;;;;3.88;0.20;;;7.90;99.90;;;;;;5013831;28;20030;-74
2022/05/22 03:38:52;;;;;;;3.63;0.80;;;7.80;99.90;;;;;;5013939;28;20132;-74
2022/05/22 03:41:17;;;;;;;6.10;0.60;;;7.90;99.90;;;;;;5028818;28;20108;-75
2022/05/22 03:43:43;;;;;;;2.72;1.02;;;7.90;99.90;;;;;;5013578;28;20029;-74
2022/05/22 03:46:08;;;;;;;1.65;0.65;;;7.90;99.90;;;;;;5014329;28;20022;-74
2022/05/22 03:48:34;;;;;;;2.08;0.30;;;7.90;99.90;;;;;;5014050;28;20026;-73
2022/05/22 03:50:59;;;;;;;4.25;0.90;;;7.90;99.90;;;;;;5013899;28;20030;-73
2022/05/22 03:53:25;;;;;;;2.33;0.60;;;7.90;99.90;;;;;;5013380;28;20026;-73
2022/05/22 03:55:51;;;;;;;1.73;0.38;;;7.90;99.90;;;;;;5013460;28;20026;-74
2022/05/22 03:58:17;;;;;;;2.65;0.47;;;7.90;99.90;;;;;;5013778;28;20473;-74
2022/05/22 04:00:44;;;;;;;1.17;0.22;;;7.90;99.90;;;;;;5013785;28;20072;-73
2022/05/22 04:03:09;;;;;;;2.92;0.50;;;8.00;99.90;;;;;;5013391;28;20097;-73
2022/05/22 04:05:35;;;;;;;3.45;0.63;;;8.00;99.90;;;;;;5014072;28;20057;-74
2022/05/22 04:08:01;;;;;;;3.00;0.10;;;8.00;99.90;;;;;;5013702;28;20069;-74
2022/05/22 04:10:27;;;;;;;2.30;0.20;;;8.00;99.90;;;;;;5013876;28;20084;-74
2022/05/22 04:12:52;;;;;;;2.63;0.30;;;8.00;99.90;;;;;;5013674;28;20116;-73
2022/05/22 04:15:21;;;;;;;2.65;0.40;;;8.00;99.90;;;;;;5013967;28;20033;-75
2022/05/22 04:17:47;;;;;;;2.92;0.10;;;8.00;99.90;;;;;;5013462;28;20068;-74
2022/05/22 04:20:14;;;;;;;2.10;0.25;;;8.10;99.90;;;;;;5015252;28;20034;-74
2022/05/22 04:25:35;;;;;;;3.22;0.40;;;8.20;99.90;;;;;;4998190;28;20029;-74
2022/05/22 04:28:01;;;;;;;2.53;0.43;;;8.30;99.90;;;;;;5016848;28;20018;-74
2022/05/22 04:30:26;;;;;;;1.30;0.15;;;8.30;99.90;;;;;;5016856;28;20033;-75
2022/05/22 04:32:53;;;;;;;4.78;0.50;;;8.40;99.90;;;;;;5017177;28;20108;-75
2022/05/22 04:35:19;;;;;;;7.03;1.02;;;8.50;99.90;;;;;;5016810;28;20021;-74
2022/05/22 04:37:45;;;;;;;5.78;0.70;;;8.60;99.90;;;;;;5016551;28;20153;-74
2022/05/22 04:40:12;;;;;;;4.80;0.40;;;8.70;99.90;;;;;;5015438;28;20046;-74
2022/05/22 04:42:38;;;;;;;2.28;0.30;;;8.80;99.90;;;;;;5015216;28;20489;-75
2022/05/22 04:45:06;;;;;;;3.35;0.57;;;8.90;99.90;;;;;;5016145;28;20017;-74
2022/05/22 04:47:36;;;;;;;5.32;1.05;;;9.00;99.90;;;;;;5016425;28;20018;-74
2022/05/22 04:50:03;;;;;;;6.97;0.85;;;9.10;99.90;;;;;;5016364;28;20022;-74
2022/05/22 04:52:28;;;;;;;9.23;0.68;;;9.20;99.90;;;;;;5016333;28;20045;-74
2022/05/22 04:54:54;;;;;;;3.60;0.40;;;9.30;99.90;;;;;;5031500;28;20022;-73
2022/05/22 04:57:19;;;;;;;10.15;0.68;;;9.40;99.90;;;;;;5031295;28;20030;-74
2022/05/22 04:59:45;;;;;;;10.80;0.55;;;9.50;99.90;;;;;;5016046;28;20029;-74
2022/05/22 05:02:10;;;;;;;3.67;0.70;;;9.60;99.90;;;;;;5016229;28;20160;-74
2022/05/22 05:04:36;;;;;;;3.60;0.60;;;9.70;99.90;;;;;;5016348;28;20021;-74
2022/05/22 05:07:09;;;;;;;2.65;0.45;;;9.80;99.90;;;;;;5016422;28;20037;-74
2022/05/22 05:09:37;;;;;;;6.63;1.33;;;9.90;99.90;;;;;;5015921;28;20026;-74
2022/05/22 05:12:05;;;;;;;5.50;0.75;;;10.10;99.90;;;;;;5015940;28;20029;-74
2022/05/22 05:14:30;;;;;;;5.63;0.95;;;10.20;99.90;;;;;;5016213;28;20022;-74
2022/05/22 05:16:56;;;;;;;4.45;1.25;;;10.30;99.90;;;;;;5014624;28;20117;-73
2022/05/22 05:19:22;;;;;;;3.17;1.10;;;10.50;99.90;;;;;;5016775;28;20037;-73
2022/05/22 05:21:48;;;;;;;3.78;1.05;;;10.70;99.90;;;;;;5014516;28;20544;-74
2022/05/22 05:24:16;;;;;;;4.15;1.33;;;10.80;99.90;;;;;;5014675;28;20052;-73
2022/05/22 05:26:41;;;;;;;10.60;1.92;;;11.00;99.90;;;;;;5015960;28;20418;-73
2022/05/22 05:29:07;;;;;;;4.20;1.33;;;11.10;99.90;;;;;;5015501;28;20045;-73
2022/05/22 05:31:32;;;;;;;8.77;1.70;;;11.20;99.90;;;;;;5030150;28;20092;-73
2022/05/22 05:33:58;;;;;;;8.57;2.10;;;11.40;99.90;;;;;;5030744;28;20022;-73
2022/05/22 05:36:23;;;;;;;7.10;1.75;;;11.50;99.90;;;;;;5015492;28;20030;-74
2022/05/22 05:38:49;;;;;;;16.02;2.42;;;11.70;99.90;;;;;;5015377;28;20496;-73
2022/05/22 05:41:14;;;;;;;9.00;2.10;;;11.90;99.90;;;;;;5030604;28;20577;-73
2022/05/22 05:43:40;;;;;;;7.70;2.10;;;11.90;99.90;;;;;;5015976;28;20018;-73
2022/05/22 05:46:10;;;;;;;6.35;2.50;;;12.10;99.90;;;;;;5015645;28;20018;-73
2022/05/22 05:48:35;;;;;;;7.10;2.05;;;12.20;99.90;;;;;;5030496;28;20024;-73
2022/05/22 05:51:01;;;;;;;6.07;2.47;;;12.30;99.90;;;;;;5015098;28;20029;-73
2022/05/22 05:53:27;;;;;;;9.40;2.95;;;12.40;99.90;;;;;;5014976;28;20042;-73
2022/05/22 05:55:52;;;;;;;6.78;2.70;;;12.60;99.90;;;;;;5013796;28;20037;-73
2022/05/22 05:58:18;;;;;;;9.50;2.70;;;12.70;99.90;;;;;;5030286;28;20117;-73
2022/05/22 06:00:44;;;;;;;9.15;2.03;;;12.90;99.90;;;;;;5014922;28;20010;-73
2022/05/22 06:03:09;;;;;;;5.95;2.40;;;13.00;99.90;;;;;;5014734;28;20032;-73
2022/05/22 06:05:35;;;;;;;8.80;2.05;;;13.10;99.90;;;;;;5014772;28;20496;-73
2022/05/22 06:08:00;;;;;;;12.55;2.53;;;13.30;99.90;;;;;;5014961;28;20048;-73
2022/05/22 06:10:26;;;;;;;8.30;2.67;;;13.40;99.90;;;;;;5015270;28;20022;-73
2022/05/22 06:12:51;;;;;;;6.68;2.17;;;13.50;99.90;;;;;;5014935;28;20022;-73
2022/05/22 06:15:17;;;;;;;5.15;2.17;;;13.60;99.90;;;;;;5014822;28;20034;-73
2022/05/22 06:17:46;;;;;;;6.38;2.28;;;13.70;99.90;;;;;;5013492;28;20018;-73
2022/05/22 06:20:16;;;;;;;9.77;2.10;;;13.80;99.90;;;;;;5014743;28;20084;-74
2022/05/22 06:22:44;;;;;;;10.40;2.30;;;14.00;99.90;;;;;;5029851;28;20036;-74
2022/05/22 06:25:12;;;;;;;7.32;2.25;;;14.10;99.90;;;;;;5014690;28;20469;-73
2022/05/22 06:27:38;;;;;;;8.90;2.80;;;14.20;99.90;;;;;;5013355;28;20083;-73
2022/05/22 06:30:05;;;;;;;9.27;1.92;;;14.30;99.90;;;;;;5029866;23;20096;-77
2022/05/22 06:32:32;;;;;;;4.78;2.17;;;14.40;99.90;;;;;;5052011;28;20032;-77
2022/05/22 06:35:01;;;;;;;10.18;2.60;;;14.50;99.90;;;;;;5054847;28;20490;-77
2022/05/22 06:37:26;;;;;;;;;;;14.80;99.90;;;;;;5055182;28;20029;-77
2022/05/22 06:39:52;;;;;;;8.15;2.10;;;15.90;99.90;;;;;;5054825;28;19912;-76
2022/05/22 06:42:26;;;;;;;7.60;2.42;;;14.90;99.90;;;;;;5054902;28;20021;-77
2022/05/22 06:44:58;;;;;;;5.07;2.63;;;15.00;99.90;;;;;;5054346;28;20056;-76
2022/05/22 06:47:26;;;;;;;17.10;3.22;;;15.10;99.90;;;;;;5054600;28;20021;-76
2022/05/22 06:49:52;;;;;;;12.55;2.25;;;15.20;99.90;;;;;;5054911;28;20017;-76
2022/05/22 06:52:18;;;;;;;12.82;2.67;;;15.30;99.90;;;;;;5054540;28;20032;-76
2022/05/22 06:54:44;;;;;;;6.18;1.60;;;15.40;99.90;;;;;;5055170;28;20108;-76
2022/05/22 06:57:10;;;;;;;6.10;0.77;;;15.40;99.90;;;;;;5054708;28;20458;-77
2022/05/22 06:59:36;;;;;;;8.85;2.03;;;15.50;99.90;;;;;;5055258;28;20107;-76
2022/05/22 07:02:04;;;;;;;3.58;0.80;;;15.80;99.90;;;;;;5055441;28;20392;-76
2022/05/22 07:04:30;;;;;;;9.60;1.55;;;16.00;99.90;;;;;;5055703;28;20372;-76
2022/05/22 07:06:56;;;;;;;4.97;1.00;;;16.20;99.90;;;;;;5054278;28;20017;-76
2022/05/22 07:09:22;;;;;;;4.00;1.20;;;16.40;99.90;;;;;;5055315;28;20380;-77
2022/05/22 07:11:49;;;;;;;5.70;0.88;;;16.50;99.90;;;;;;5055912;28;20032;-77
2022/05/22 07:14:15;;;;;;;14.48;1.55;;;16.60;99.90;;;;;;5056182;28;20025;-77
2022/05/22 07:16:41;;;;;;;5.68;1.08;;;16.70;99.90;;;;;;5056269;28;20048;-77
2022/05/22 07:19:09;;;;;;;4.63;1.17;;;17.00;99.90;;;;;;5054057;28;20037;-77
2022/05/22 07:21:35;;;;;;;5.93;1.17;;;16.80;99.90;;;;;;5056467;28;20021;-77
2022/05/22 07:24:01;;;;;;;8.50;1.48;;;16.90;99.90;;;;;;5054582;28;20095;-77
2022/05/22 07:26:28;;;;;;;6.32;1.20;;;16.90;99.90;;;;;;5054933;28;20086;-76
2022/05/22 07:28:54;;;;;;;5.40;0.60;;;17.00;99.90;;;;;;5055692;28;20078;-77
2022/05/22 07:31:22;;;;;;;5.82;1.30;;;17.10;99.90;;;;;;5055560;28;20534;-76
2022/05/22 07:33:48;;;;;;;7.22;1.02;;;17.20;99.90;;;;;;5054963;28;20017;-77
2022/05/22 07:36:14;;;;;;;5.32;0.40;;;17.30;99.90;;;;;;5055383;28;20029;-76
2022/05/22 07:38:40;;;;;;;2.45;0.38;;;17.30;99.90;;;;;;5056036;28;20025;-77
2022/05/22 07:41:06;;;;;;;3.35;0.30;;;17.40;99.90;;;;;;5056841;28;20103;-76
2022/05/22 07:43:31;;;;;;;2.67;0.60;;;17.50;99.90;;;;;;5055649;28;20021;-75
2022/05/22 07:45:57;;;;;;;6.95;0.20;;;17.40;99.90;;;;;;5055663;28;20018;-76
2022/05/22 07:48:23;;;;;;;9.05;0.10;;;17.90;99.90;;;;;;5057253;28;20049;-77
2022/05/22 07:50:57;;;;;;;4.68;0.52;;;17.60;99.90;;;;;;5056313;28;20079;-77
2022/05/22 07:53:25;;;;;;;4.65;0.35;;;17.90;99.90;;;;;;5055935;28;20387;-77
2022/05/22 07:55:50;;;;;;;2.38;0.50;;;18.10;99.90;;;;;;5060529;28;20013;-78
2022/05/22 07:58:17;;;;;;;4.63;0.22;;;18.20;99.90;;;;;;5058998;28;20112;-77
2022/05/22 08:00:43;;;;;;;4.40;0.55;;;18.30;99.90;;;;;;5060031;28;20033;-77
2022/05/22 08:03:10;;;;;;;10.57;0.15;;;18.30;99.90;;;;;;5060727;28;20036;-77
2022/05/22 08:05:36;;;;;;;3.70;0.30;;;18.30;99.90;;;;;;5059680;28;20032;-78
2022/05/22 08:08:01;;;;;;;11.10;0.75;;;18.50;99.90;;;;;;5061780;28;20472;-77
2022/05/22 08:10:27;;;;;;;6.78;0.50;;;18.70;99.90;;;;;;5061371;28;20021;-77
2022/05/22 08:12:53;;;;;;;5.10;0.17;;;18.70;99.90;;;;;;5063062;28;20043;-77
2022/05/22 08:15:21;;;;;;;2.40;0.10;;;18.80;99.90;;;;;;5063509;28;20052;-79
2022/05/22 08:17:47;;;;;;;10.00;1.33;;;18.80;99.90;;;;;;5061443;28;20116;-79
2022/05/22 08:20:16;;;;;;;3.15;0.20;;;18.90;99.90;;;;;;5059177;28;20106;-77
2022/05/22 08:22:46;;;;;;;4.10;0.50;;;18.90;99.90;;;;;;5059640;28;20506;-79
2022/05/22 08:25:17;;;;;;;4.47;0.40;;;19.00;99.90;;;;;;5059199;28;20475;-78
2022/05/22 08:27:46;;;;;;;2.40;0.30;;;19.10;99.90;;;;;;5059642;28;20416;-78
2022/05/22 08:30:14;;;;;;;;;;;19.00;96.90;;;;;;5059891;28;20368;-77
2022/05/22 08:32:41;;;;;;;5.43;0.20;;;18.90;98.30;;;;;;5059975;28;19908;-78
2022/05/22 08:35:09;;;;;;;5.40;0.03;;;19.00;99.80;;;;;;5061008;28;20403;-79
2022/05/22 08:37:35;;;;;;;3.55;0.25;;;19.10;99.60;;;;;;5062930;28;20032;-78
2022/05/22 08:40:01;;;;;;;1.40;0.10;;;19.30;97.60;;;;;;5059510;28;20079;-77
2022/05/22 08:42:47;;;;;;;3.80;0.65;;;19.30;97.80;;;;;;5059398;28;20021;-77
2022/05/22 08:45:24;;;;;;;2.08;0.30;;;19.60;97.60;;;;;;5058420;28;20029;-78
2022/05/22 08:48:06;;;;;;;6.75;0.88;;;19.50;97.40;;;;;;5057082;28;20550;-78
2022/05/22 08:50:33;;;;;;;5.57;0.00;;;19.50;96.70;;;;;;5057314;28;20032;-78
2022/05/22 08:53:05;;;;;;;5.13;0.13;;;19.60;95.80;;;;;;5059085;28;20028;-77
2022/05/22 08:59:08;;;;;;;5.03;0.30;;;19.70;92.70;;;;;;5038087;28;20029;-77
2022/05/22 09:01:45;;;;;;;6.72;0.80;;;19.70;92.10;;;;;;5057832;28;20048;-77
2022/05/22 09:04:32;;;;;;;4.28;0.32;;;19.70;93.50;;;;;;5057885;28;20102;-77
2022/05/22 09:07:02;;;;;;;3.25;0.15;;;20.90;94.00;;;;;;5056317;28;20150;-77
2022/05/22 09:09:31;;;;;;;2.20;0.38;;;19.70;93.50;;;;;;5058631;28;20014;-77
2022/05/22 09:12:02;;;;;;;3.90;0.20;;;19.80;92.50;;;;;;5058489;28;20021;-76
2022/05/22 09:14:39;;;;;;;3.78;0.10;;;20.00;91.30;;;;;;5058472;28;20063;-76
2022/05/22 09:17:11;;;;;;;2.63;0.63;;;20.00;91.10;;;;;;5057075;28;20388;-76
2022/05/22 09:20:18;;;;;;;3.10;0.35;;;20.00;90.00;;;;;;5057081;28;20078;-76
2022/05/22 09:22:51;;;;;;;2.28;0.20;;;20.00;90.70;;;;;;5056434;28;20086;-76
2022/05/22 09:25:28;;;;;;;0.77;0.00;;;20.00;89.40;;;;;;5056098;28;20033;-77
2022/05/22 09:28:26;;;;;;;2.72;0.20;;;20.00;89.60;;;;;;5057478;28;20383;-77
2022/05/22 09:31:23;;;;;;;1.73;0.00;;;20.00;91.40;;;;;;5057616;28;20060;-77
2022/05/22 09:34:26;;;;;;;10.32;0.85;;;20.10;90.60;;;;;;5057974;28;20025;-77
2022/05/22 09:37:25;;;;;;;1.42;0.15;;;20.20;90.40;;;;;;5023863;28;20063;-77
2022/05/22 09:39:56;;;;;;;3.08;0.38;;;20.30;90.80;;;;;;5057881;28;20021;-78
2022/05/22 09:42:40;;;;;;;1.33;0.00;;;20.40;85.30;;;;;;5056323;28;20392;-77
2022/05/22 09:45:17;;;;;;;3.25;0.30;;;20.50;82.70;;;;;;5054848;28;20021;-77
2022/05/22 09:48:06;;;;;;;1.27;0.00;;;20.30;82.80;;;;;;5056007;28;20586;-77
2022/05/22 09:50:41;;;;;;;2.63;0.10;;;20.30;80.70;;;;;;5055474;28;20025;-74
2022/05/22 09:53:21;;;;;;;3.28;0.57;;;20.50;83.20;;;;;;5055571;28;20024;-75
2022/05/22 09:55:52;;;;;;;3.95;0.28;;;20.50;78.70;;;;;;5055275;28;20503;-75
2022/05/22 09:58:33;;;;;;;0.88;0.00;;;20.60;81.60;;;;;;5053728;28;20067;-74
2022/05/22 10:01:26;;;;;;;3.22;0.28;;;20.70;78.80;;;;;;5053957;28;20109;-73
2022/05/22 10:04:40;;;;;;;5.55;0.40;;;20.70;78.30;;;;;;5053558;28;20036;-74
2022/05/22 10:07:28;;;;;;;1.08;0.00;;;20.90;78.50;;;;;;5013494;28;20401;-74
2022/05/22 10:10:22;;;;;;;3.45;0.00;;;21.10;80.50;;;;;;5014074;28;20108;-74
2022/05/22 10:13:06;;;;;;;1.13;0.00;;;21.30;79.30;;;;;;5047478;28;20078;-74
2022/05/22 10:15:55;;;;;;;4.53;0.25;;;21.40;74.10;;;;;;5054137;28;20049;-74
2022/05/22 10:19:03;;;;;;;1.55;0.17;;;21.50;75.40;;;;;;5055810;28;20454;-74
2022/05/22 10:21:49;;;;;;;2.83;0.20;;;21.40;74.30;;;;;;5055683;28;20162;-76
2022/05/22 10:24:25;;;;;;;3.75;0.10;;;21.40;76.50;;;;;;5051786;28;20115;-76
2022/05/22 10:26:51;;;;;;;1.85;0.00;;;21.50;72.30;;;;;;5047920;28;20013;-76
2022/05/22 10:29:29;;;;;;;4.65;0.20;;;21.50;67.90;;;;;;5070335;28;20384;-76
2022/05/22 10:32:09;;;;;;;3.08;0.40;;;21.60;71.80;;;;;;5054837;28;20081;-76
2022/05/22 10:34:48;;;;;;;0.50;0.00;;;21.80;68.30;;;;;;5054938;28;20070;-76
2022/05/22 10:37:21;;;;;;;3.85;0.20;;;21.70;69.80;;;;;;5054160;28;20040;-76
2022/05/22 10:39:47;;;;;;;3.30;0.35;;;21.80;70.30;;;;;;5053670;28;20032;-76
2022/05/22 10:45:20;;;;;;;4.65;0.17;;;22.10;69.90;;;;;;5054644;28;20074;-75
2022/05/22 10:47:46;;;;;;;3.50;0.20;;;22.30;65.60;;;;;;5052416;28;20071;-74
2022/05/22 10:50:24;;;;;;;0.77;0.00;;;22.20;64.70;;;;;;5054103;28;20024;-74
2022/05/22 10:52:50;;;;;;;3.08;0.43;;;22.10;64.40;;;;;;5055031;28;20039;-74
2022/05/22 10:55:26;;;;;;;3.22;0.00;;;21.90;64.60;;;;;;5054131;28;20025;-74
2022/05/22 10:58:00;;;;;;;5.53;0.00;;;21.90;65.90;;;;;;5055186;28;20032;-74
2022/05/22 11:00:27;;;;;;;3.60;0.20;;;22.10;70.10;;;;;;5055176;28;20036;-74
2022/05/22 11:02:53;;;;;;;3.75;0.43;;;22.20;68.20;;;;;;5055024;28;20414;-74
2022/05/22 11:05:28;;;;;;;4.10;0.00;;;22.30;65.10;;;;;;5055188;28;20024;-74
2022/05/22 11:07:56;;;;;;;3.67;0.57;;;22.50;69.00;;;;;;5049786;28;20079;-74
2022/05/22 11:10:31;;;;;;;0.30;0.00;;;22.60;66.00;;;;;;5054482;28;20020;-74
2022/05/22 11:13:11;;;;;;;1.85;0.00;;;22.70;67.80;;;;;;5054759;28;20368;-74
2022/05/22 11:15:42;;;;;;;0.65;0.00;;;22.90;67.40;;;;;;5052766;28;20033;-75
2022/05/22 11:18:22;;;;;;;2.50;0.00;;;23.00;63.40;;;;;;5053416;28;20108;-76
2022/05/22 11:20:55;;;;;;;3.33;0.10;;;23.10;63.80;;;;;;5054215;28;20017;-76
2022/05/22 11:23:38;;;;;;;0.85;0.00;;;23.20;64.70;;;;;;5052487;28;20399;-75
2022/05/22 11:26:05;;;;;;;2.53;0.00;;;23.50;63.00;;;;;;5052771;28;20029;-75
2022/05/22 11:29:06;;;;;;;2.17;0.25;;;23.60;59.50;;;;;;5051880;28;20483;-75
2022/05/22 11:31:52;;;;;;;2.28;0.13;;;23.70;60.40;;;;;;5052406;28;20092;-74
2022/05/22 11:34:46;;;;;;;3.35;0.00;;;23.60;61.60;;;;;;5054733;28;20662;-74
2022/05/22 11:37:39;;;;;;;1.50;0.08;;;23.70;62.00;;;;;;5055430;28;20484;-76
2022/05/22 11:40:23;;;;;;;2.97;0.30;;;23.90;62.10;;;;;;5055006;28;20017;-76
2022/05/22 11:43:00;;;;;;;3.78;0.43;;;24.10;58.30;;;;;;5055385;28;20372;-76
2022/05/22 11:46:04;;;;;;;1.95;0.00;;;24.00;57.50;;;;;;5053976;28;20021;-74
2022/05/22 11:48:39;;;;;;;1.15;0.00;;;24.10;59.40;;;;;;5053612;28;20087;-74
2022/05/22 11:51:42;;;;;;;2.40;0.20;;;24.10;57.70;;;;;;5053531;28;20021;-74
2022/05/22 11:54:24;;;;;;;1.70;0.35;;;24.30;58.50;;;;;;5054357;28;20028;-76
2022/05/22 11:57:17;;;;;;;2.10;0.00;;;24.20;54.40;;;;;;5053932;28;20040;-76
2022/05/22 12:00:08;;;;;;;1.75;0.05;;;23.90;54.30;;;;;;5054287;28;20445;-76
2022/05/22 12:03:06;;;;;;;3.90;0.10;;;24.00;52.80;;;;;;5052870;28;20025;-76
2022/05/22 12:05:31;;;;;;;2.72;0.00;;;24.00;54.20;;;;;;5052822;28;20079;-76
2022/05/22 12:08:40;;;;;;;2.33;0.10;;;24.10;53.70;;;;;;5053853;28;20021;-76
2022/05/22 12:11:17;;;;;;;0.68;0.00;;;24.20;55.00;;;;;;5053808;28;20075;-76
2022/05/22 12:14:16;;;;;;;0.98;0.10;;;24.60;55.00;;;;;;5053837;28;20502;-76
2022/05/22 12:16:53;;;;;;;1.80;0.10;;;24.70;53.90;;;;;;5053617;28;20388;-77
2022/05/22 12:19:55;;;;;;;3.22;0.32;;;24.80;56.20;;;;;;5055113;28;20024;-77
2022/05/22 12:23:07;;;;;;;3.78;0.30;;;24.70;51.70;;;;;;5054652;28;20060;-74
2022/05/22 12:25:15;;;;;;;2.50;0.40;;;24.70;55.10;;;;;;5054243;28;20025;-76
2022/05/22 12:27:42;;;;;;;3.53;0.20;;;24.80;53.60;;;;;;5053751;28;20021;-76
2022/05/22 12:30:19;;;;;;;1.27;0.10;;;24.80;54.70;;;;;;5052736;28;20037;-74
2022/05/22 12:32:58;;;;;;;3.30;0.40;;;24.90;53.80;;;;;;5052309;28;20471;-74
2022/05/22 12:35:25;;;;;;;3.10;0.40;;;25.20;52.70;;;;;;5052565;28;20033;-73
2022/05/22 12:38:18;;;;;;;7.05;1.02;;;25.20;53.30;;;;;;5054051;28;20060;-73
2022/05/22 12:41:03;;;;;;;2.33;0.30;;;25.20;53.50;;;;;;5051908;28;20037;-75
2022/05/22 12:43:30;;;;;;;3.03;0.20;;;25.30;57.90;;;;;;5057919;28;20029;-74
2022/05/22 12:46:01;;;;;;;3.53;0.65;;;25.10;54.70;;;;;;5056506;28;20036;-75
2022/05/22 12:48:33;;;;;;;2.78;0.47;;;25.40;56.30;;;;;;5056847;28;20043;-75
2022/05/22 12:51:10;;;;;;;4.05;0.40;;;25.50;55.50;;;;;;5056751;28;20356;-75
2022/05/22 12:53:39;;;;;;;6.20;1.25;;;25.20;53.40;;;;;;5057424;28;20029;-75
2022/05/22 12:56:29;;;;;;;4.80;1.00;;;25.10;53.90;;;;;;5057176;28;20048;-75
2022/05/22 12:59:05;;;;;;;6.60;0.95;;;25.30;57.00;;;;;;5057511;28;20090;-75
2022/05/22 13:01:39;;;;;;;2.92;1.00;;;25.50;55.60;;;;;;5055478;28;20048;-75
2022/05/22 13:04:44;;;;;;;1.92;0.32;;;25.80;55.50;;;;;;5055108;28;20035;-75
2022/05/22 13:07:16;;;;;;;2.80;1.00;;;25.90;54.20;;;;;;5048040;28;20036;-75
2022/05/22 13:09:47;;;;;;;6.00;1.30;;;26.20;54.00;;;;;;5056988;28;20017;-75
2022/05/22 13:12:13;;;;;;;3.25;0.40;;;26.20;52.30;;;;;;5055790;28;20025;-75
2022/05/22 13:14:43;;;;;;;5.35;0.90;;;26.20;55.30;;;;;;5057035;28;20036;-75
2022/05/22 13:17:12;;;;;;;6.32;1.23;;;26.50;53.50;;;;;;5056650;28;20028;-75
2022/05/22 13:20:07;;;;;;;;;;;26.80;52.70;;;;;;5056972;28;20035;-75
2022/05/22 13:22:41;;;;;;;1.58;0.38;;;27.00;53.70;;;;;;5047271;28;20003;-75
2022/05/22 13:25:26;;;;;;;4.82;0.60;;;27.40;52.20;;;;;;5055143;28;20025;-75